Lynn Lake, Manitoba

7:42 AM CST on December 11, 2016 (GMT -0600)
Lynn Lake | | Change Station

Elev 1171 ft 56.86 °N, 101.08 °W | Updated 42 minutes ago

Snow
Snow
-13 °F
Feels Like -29 °F
N
7
Wind Variable Wind from SW

Today
High -- | Low -- °F
--% Chance of Precip.
Yesterday
High -- | Low -- °F
Precip. -- in
Pressure 30.00 in
Visibility 9.0 miles
Clouds Overcast 5000 ft
Windchill -29 °F
Dew Point -17 °F
Humidity 84%
Rainfall 0.00 in
Snow Depth Not available.
9:12 AM 4:03 PM
Waxing Gibbous, 91% visible
METAR CYYL 111300Z AUTO 23006KT 9SM -SN OVC050 M25/M27 A2985 RMK SLP159
Pressure 30.00 in
Visibility 9.0 miles
Clouds Overcast 5000 ft
Windchill -29 °F
Dew Point -17 °F
Humidity 84%
Rainfall 0.00 in
Snow Depth Not available.
9:12 AM 4:03 PM
Waxing Gibbous, 91% visible
METAR CYYL 111300Z AUTO 23006KT 9SM -SN OVC050 M25/M27 A2985 RMK SLP159

10-Day Weather Forecast

Almanac

Astronomy

Dec. 11, 2016 Rise Set
Actual Time
Civil Twilight
Nautical Twilight
Astronomical Twilight
Moon
Length of Visible Light
Length of Day
Tomorrow will be .
, % of the Moon is Illuminated

Today's Extremes

Country Highs Country Lows

Community

WunderPhotos

Upload Photos

1,956,708 photos uploaded!

WunderBlog® & News

Nearby

Air Quality

  Air Quality AQ Index Pollutant
Not available.

Snow Depth

Station Depth Elevation

Earthquake Activity

City Distance Mag. Time & Date
Minimum magnitude displayed is 2.5.

Coastal Water Temperatures

Place Temperature

Stations

Nearby Weather Stations

Station Location Temp. Windchill Dew Point Humidity Wind Precip. Elev Updated Type
                   

Watches & Warnings

There are currently no watches in effect.